createdAt,value
2022-11-10T00:02:08.836Z,100.00
2022-11-10T00:04:54.248Z,100.00
2022-11-10T00:07:39.851Z,100.00
2022-11-10T00:10:25.306Z,100.00
2022-11-10T00:13:10.678Z,100.00
2022-11-10T00:16:16.627Z,100.00
2022-11-10T00:19:01.877Z,100.00
2022-11-10T00:21:47.468Z,100.00
2022-11-10T00:24:32.859Z,100.00
2022-11-10T00:27:18.686Z,100.00
2022-11-10T00:30:05.108Z,100.00
2022-11-10T00:32:50.476Z,100.00
2022-11-10T00:35:36.721Z,100.00
2022-11-10T00:38:22.233Z,100.00
2022-11-10T00:41:07.493Z,100.00
2022-11-10T00:43:52.916Z,100.00
2022-11-10T00:46:37.921Z,100.00
2022-11-10T00:49:23.299Z,100.00
2022-11-10T00:52:08.848Z,100.00
2022-11-10T00:54:53.943Z,100.00
2022-11-10T00:57:38.930Z,100.00
2022-11-10T01:00:23.896Z,100.00
2022-11-10T01:03:13.016Z,100.00
2022-11-10T01:05:58.746Z,100.00
2022-11-10T01:08:43.978Z,100.00
2022-11-10T01:11:29.492Z,100.00
2022-11-10T01:14:14.778Z,100.00
2022-11-10T01:16:59.853Z,100.00
2022-11-10T01:19:45.127Z,100.00
2022-11-10T01:22:30.504Z,100.00
2022-11-10T01:25:16.019Z,100.00
2022-11-10T01:28:01.134Z,100.00
2022-11-10T01:30:46.266Z,100.00
2022-11-10T01:33:32.066Z,100.00
2022-11-10T01:36:17.474Z,100.00
2022-11-10T01:39:02.890Z,100.00
2022-11-10T01:41:48.127Z,100.00
2022-11-10T01:44:35.042Z,100.00
2022-11-10T01:47:19.982Z,100.00
2022-11-10T01:50:06.441Z,100.00
2022-11-10T01:52:53.697Z,100.00
2022-11-10T01:55:41.845Z,100.00
2022-11-10T01:58:30.963Z,100.00
2022-11-10T02:01:15.967Z,100.00
2022-11-10T02:04:20.755Z,100.00
2022-11-10T02:07:06.260Z,100.00
2022-11-10T02:09:52.743Z,100.00
2022-11-10T02:12:37.879Z,100.00
2022-11-10T02:15:23.408Z,100.00
2022-11-10T02:18:08.559Z,100.00
2022-11-10T02:20:53.807Z,100.00
2022-11-10T02:23:39.189Z,100.00
2022-11-10T02:26:25.552Z,100.00
2022-11-10T02:29:10.684Z,100.00
2022-11-10T02:31:56.205Z,100.00
2022-11-10T02:34:41.730Z,100.00
2022-11-10T02:37:27.084Z,100.00
2022-11-10T02:40:12.044Z,100.00
2022-11-10T02:42:57.190Z,100.00
2022-11-10T02:45:45.292Z,100.00
2022-11-10T02:48:30.136Z,100.00
2022-11-10T02:51:15.168Z,100.00
2022-11-10T02:54:00.715Z,100.00
2022-11-10T02:56:45.813Z,100.00
2022-11-10T02:59:31.164Z,100.00
2022-11-10T03:02:16.759Z,100.00
2022-11-10T03:05:01.965Z,100.00
2022-11-10T03:07:52.353Z,100.00
2022-11-10T03:10:37.949Z,100.00
2022-11-10T03:13:24.631Z,100.00
2022-11-10T03:16:10.293Z,100.00
2022-11-10T03:18:56.368Z,100.00
2022-11-10T03:21:41.831Z,100.00
2022-11-10T03:24:26.689Z,100.00
2022-11-10T03:27:11.756Z,100.00
2022-11-10T03:29:56.908Z,100.00
2022-11-10T03:32:42.507Z,100.00
2022-11-10T03:35:28.194Z,100.00
2022-11-10T03:38:13.410Z,100.00
2022-11-10T03:44:04.091Z,100.00
2022-11-10T03:46:51.513Z,100.00
2022-11-10T03:49:37.087Z,100.00
2022-11-10T03:52:22.553Z,100.00
2022-11-10T03:55:08.080Z,100.00
2022-11-10T03:57:53.545Z,100.00
2022-11-10T04:00:38.855Z,100.00
2022-11-10T04:03:24.976Z,100.00
2022-11-10T04:06:29.813Z,100.00
2022-11-10T04:09:14.849Z,100.00
2022-11-10T04:12:24.495Z,100.00
2022-11-10T04:15:29.858Z,100.00
2022-11-10T04:18:21.617Z,100.00
2022-11-10T04:21:06.723Z,100.00
2022-11-10T04:23:51.880Z,100.00
2022-11-10T04:26:48.720Z,100.00
2022-11-10T04:29:33.911Z,100.00
2022-11-10T04:32:19.253Z,100.00
2022-11-10T04:35:04.296Z,100.00
2022-11-10T04:37:49.722Z,100.00
2022-11-10T04:40:34.727Z,100.00
2022-11-10T04:43:19.907Z,100.00
2022-11-10T04:46:05.681Z,100.00
2022-11-10T04:48:51.015Z,100.00
2022-11-10T04:51:37.477Z,100.00
2022-11-10T04:54:23.303Z,100.00
2022-11-10T04:57:08.493Z,100.00
2022-11-10T04:59:54.918Z,100.00
2022-11-10T05:02:40.076Z,100.00
2022-11-10T05:05:25.613Z,100.00
2022-11-10T05:08:11.023Z,100.00
2022-11-10T05:10:56.287Z,100.00
2022-11-10T05:13:42.002Z,100.00
2022-11-10T05:16:27.358Z,100.00
2022-11-10T05:19:13.922Z,100.00
2022-11-10T05:21:59.430Z,100.00
2022-11-10T05:24:47.520Z,100.00
2022-11-10T05:27:32.789Z,100.00
2022-11-10T05:30:18.140Z,100.00
2022-11-10T05:33:03.231Z,100.00
2022-11-10T05:35:49.568Z,100.00
2022-11-10T05:38:37.745Z,100.00
2022-11-10T05:41:25.638Z,100.00
2022-11-10T05:44:10.759Z,100.00
2022-11-10T05:46:55.911Z,100.00
2022-11-10T05:49:41.495Z,100.00
2022-11-10T05:52:26.693Z,100.00
2022-11-10T05:55:12.376Z,100.00
2022-11-10T05:57:57.662Z,100.00
2022-11-10T06:00:46.440Z,100.00
2022-11-10T06:03:31.974Z,100.00
2022-11-10T06:06:18.719Z,100.00
2022-11-10T06:09:03.779Z,100.00
2022-11-10T06:11:49.056Z,100.00
2022-11-10T06:14:33.901Z,100.00
2022-11-10T06:17:19.216Z,100.00
2022-11-10T06:20:04.691Z,100.00
2022-11-10T06:22:59.786Z,100.00
2022-11-10T06:25:45.486Z,100.00
2022-11-10T06:28:30.750Z,100.00
2022-11-10T06:31:16.287Z,100.00
2022-11-10T06:34:01.562Z,100.00
2022-11-10T06:36:47.135Z,100.00
2022-11-10T06:39:32.508Z,100.00
2022-11-10T06:42:17.872Z,100.00
2022-11-10T06:45:03.409Z,100.00
2022-11-10T06:47:48.676Z,100.00
2022-11-10T06:50:33.881Z,100.00
2022-11-10T06:53:24.301Z,100.00
2022-11-10T06:56:12.126Z,100.00
2022-11-10T06:58:57.119Z,100.00
2022-11-10T07:01:42.605Z,100.00
2022-11-10T07:04:27.867Z,100.00
2022-11-10T07:07:13.455Z,100.00
2022-11-10T07:10:02.760Z,100.00
2022-11-10T07:12:55.462Z,100.00
2022-11-10T07:15:40.727Z,100.00
2022-11-10T07:18:25.779Z,100.00
2022-11-10T07:21:10.704Z,100.00
2022-11-10T07:23:58.123Z,100.00
2022-11-10T07:26:43.710Z,100.00
2022-11-10T07:29:29.050Z,100.00
2022-11-10T07:32:14.914Z,100.00
2022-11-10T07:34:59.977Z,100.00
2022-11-10T07:37:45.321Z,100.00
2022-11-10T07:40:30.543Z,100.00
2022-11-10T07:43:15.546Z,100.00
2022-11-10T07:46:01.043Z,100.00
2022-11-10T07:48:46.066Z,100.00
2022-11-10T07:51:31.403Z,100.00
2022-11-10T07:54:16.779Z,100.00
2022-11-10T07:57:01.907Z,100.00
2022-11-10T07:59:47.265Z,100.00
2022-11-10T08:02:32.132Z,100.00
2022-11-10T08:05:17.615Z,100.00
2022-11-10T08:08:03.245Z,100.00
2022-11-10T08:10:48.364Z,100.00
2022-11-10T08:13:33.617Z,100.00
2022-11-10T08:16:18.925Z,100.00
2022-11-10T08:19:04.448Z,100.00
2022-11-10T08:21:49.692Z,100.00
2022-11-10T08:24:34.829Z,100.00
2022-11-10T08:27:20.357Z,100.00
2022-11-10T08:30:05.713Z,100.00
2022-11-10T08:32:53.154Z,100.00
2022-11-10T08:35:39.110Z,100.00
2022-11-10T08:38:24.587Z,100.00
2022-11-10T08:41:09.794Z,100.00
2022-11-10T08:43:55.202Z,100.00
2022-11-10T08:46:42.594Z,100.00
2022-11-10T08:49:27.659Z,100.00
2022-11-10T08:52:14.164Z,100.00
2022-11-10T08:54:59.543Z,100.00
2022-11-10T08:57:44.847Z,100.00
2022-11-10T09:00:30.993Z,100.00
2022-11-10T09:03:18.796Z,100.00
2022-11-10T09:06:04.369Z,100.00
2022-11-10T09:08:49.718Z,100.00
2022-11-10T09:11:34.923Z,100.00
2022-11-10T09:14:21.061Z,100.00
2022-11-10T09:17:06.468Z,100.00
2022-11-10T09:19:51.670Z,100.00
2022-11-10T09:22:37.226Z,100.00
2022-11-10T09:25:23.076Z,100.00
2022-11-10T09:28:14.634Z,100.00
2022-11-10T09:31:00.091Z,100.00
2022-11-10T09:33:45.414Z,100.00
2022-11-10T09:36:30.365Z,100.00
2022-11-10T09:39:15.742Z,100.00
2022-11-10T09:42:00.776Z,100.00
2022-11-10T09:44:52.014Z,100.00
2022-11-10T09:48:06.875Z,100.00
2022-11-10T09:50:58.249Z,100.00
2022-11-10T09:53:47.896Z,100.00
2022-11-10T09:56:37.106Z,100.00
2022-11-10T09:59:32.652Z,100.00
2022-11-10T10:02:20.867Z,100.00
2022-11-10T10:05:24.535Z,100.00
2022-11-10T10:08:21.891Z,100.00
2022-11-10T10:11:07.528Z,100.00
2022-11-10T10:14:01.723Z,100.00
2022-11-10T10:16:46.661Z,100.00
2022-11-10T10:19:38.099Z,100.00
2022-11-10T10:22:23.593Z,100.00
2022-11-10T10:25:13.174Z,100.00
2022-11-10T10:28:27.878Z,100.00
2022-11-10T10:31:26.984Z,100.00
2022-11-10T10:34:14.457Z,100.00
2022-11-10T10:36:59.394Z,100.00
2022-11-10T10:39:46.983Z,100.00
2022-11-10T10:42:33.652Z,100.00
2022-11-10T10:45:29.259Z,100.00
2022-11-10T10:48:23.861Z,100.00
2022-11-10T10:51:09.299Z,100.00
2022-11-10T10:53:54.599Z,100.00
2022-11-10T10:56:40.018Z,100.00
2022-11-10T10:59:25.384Z,100.00
2022-11-10T11:02:26.604Z,100.00
2022-11-10T11:05:16.939Z,100.00
2022-11-10T11:08:02.775Z,100.00
2022-11-10T11:10:47.689Z,100.00
2022-11-10T11:13:32.811Z,100.00
2022-11-10T11:16:17.953Z,100.00
2022-11-10T11:19:03.063Z,100.00
2022-11-10T11:21:54.069Z,100.00
2022-11-10T11:24:45.499Z,100.00
2022-11-10T11:27:49.348Z,100.00
2022-11-10T11:30:41.112Z,100.00
2022-11-10T11:33:29.557Z,100.00
2022-11-10T11:36:14.407Z,100.00
2022-11-10T11:39:06.380Z,100.00
2022-11-10T11:41:54.828Z,100.00
2022-11-10T11:44:49.296Z,100.00
2022-11-10T11:47:53.705Z,100.00
2022-11-10T11:50:44.607Z,98.15
2022-11-10T11:53:50.529Z,97.03
2022-11-10T11:56:39.489Z,95.84
2022-11-10T11:59:46.030Z,93.28
2022-11-10T12:02:52.471Z,63.29
2022-11-10T12:05:38.274Z,63.07
2022-11-10T12:08:29.453Z,62.05
2022-11-10T12:11:35.014Z,61.93
2022-11-10T12:14:26.544Z,61.19
2022-11-10T12:17:12.040Z,59.63
2022-11-10T12:20:17.131Z,58.47
2022-11-10T12:23:10.093Z,56.36
2022-11-10T12:25:55.325Z,52.25
2022-11-10T12:29:00.888Z,47.96
2022-11-10T12:31:47.972Z,42.08
2022-11-10T12:34:56.202Z,39.86
2022-11-10T12:37:46.457Z,39.44
2022-11-10T12:40:36.992Z,37.41
2022-11-10T12:43:32.510Z,37.74
2022-11-10T12:46:17.564Z,35.80
2022-11-10T12:49:19.486Z,34.45
2022-11-10T12:52:21.820Z,34.06
2022-11-10T12:55:07.647Z,32.63
2022-11-10T12:57:53.125Z,32.41
2022-11-10T13:00:54.709Z,32.99
2022-11-10T13:03:51.872Z,33.12
2022-11-10T13:06:37.338Z,31.96
2022-11-10T13:09:36.688Z,32.22
2022-11-10T13:12:23.444Z,31.47
2022-11-10T13:15:28.117Z,31.12
2022-11-10T13:18:22.701Z,30.09
2022-11-10T13:21:08.253Z,30.50
2022-11-10T13:23:53.225Z,30.68
2022-11-10T13:26:44.428Z,30.07
2022-11-10T13:29:47.915Z,30.53
2022-11-10T13:32:34.568Z,31.09
2022-11-10T13:35:29.284Z,31.14
2022-11-10T13:38:41.383Z,30.29
2022-11-10T13:41:27.082Z,30.36
2022-11-10T13:44:21.255Z,31.13
2022-11-10T13:47:09.761Z,32.56
2022-11-10T13:50:13.813Z,32.34
2022-11-10T13:53:19.816Z,32.63
2022-11-10T13:56:18.326Z,33.54
2022-11-10T13:59:16.505Z,34.18
2022-11-10T14:02:31.207Z,33.55
2022-11-10T14:05:28.498Z,33.84
2022-11-10T14:08:15.834Z,33.81
2022-11-10T14:11:03.480Z,33.24
2022-11-10T14:13:56.928Z,33.13
2022-11-10T14:16:43.105Z,33.73
2022-11-10T14:19:38.259Z,33.18
2022-11-10T14:22:39.505Z,33.44
2022-11-10T14:25:36.322Z,33.32
2022-11-10T14:28:32.766Z,33.96
2022-11-10T14:31:20.436Z,34.08
2022-11-10T14:34:05.394Z,34.65
2022-11-10T14:36:51.847Z,34.94
2022-11-10T14:39:36.706Z,35.75
2022-11-10T14:42:26.173Z,36.53
2022-11-10T14:45:16.773Z,37.52
2022-11-10T14:48:02.126Z,38.17
2022-11-10T14:50:48.178Z,38.76
2022-11-10T14:53:34.547Z,40.51
2022-11-10T14:56:21.913Z,42.25
2022-11-10T14:59:10.769Z,44.48
2022-11-10T15:01:58.331Z,46.44
2022-11-10T15:04:46.167Z,47.56
2022-11-10T15:07:31.677Z,48.87
2022-11-10T15:10:21.831Z,50.33
2022-11-10T15:13:13.186Z,51.85
2022-11-10T15:16:21.299Z,53.26
2022-11-10T15:19:24.303Z,54.58
2022-11-10T15:22:12.464Z,55.86
2022-11-10T15:25:01.731Z,57.17
2022-11-10T15:27:58.116Z,58.15
2022-11-10T15:30:51.471Z,59.36
2022-11-10T15:33:38.141Z,60.80
2022-11-10T15:36:23.307Z,61.46
2022-11-10T15:39:11.952Z,62.79
2022-11-10T15:41:58.144Z,64.73
2022-11-10T15:44:47.101Z,65.89
2022-11-10T15:47:32.719Z,65.89
2022-11-10T15:50:18.045Z,66.85
2022-11-10T15:53:06.928Z,67.93
2022-11-10T15:55:52.358Z,69.56
2022-11-10T15:58:37.713Z,71.85
2022-11-10T16:01:22.792Z,73.63
2022-11-10T16:04:11.650Z,74.90
2022-11-10T16:06:58.169Z,76.21
2022-11-10T16:09:43.639Z,77.27
2022-11-10T16:12:29.286Z,77.79
2022-11-10T16:15:17.209Z,79.18
2022-11-10T16:18:02.506Z,80.21
2022-11-10T16:20:48.885Z,81.30
2022-11-10T16:23:33.813Z,82.87
2022-11-10T16:26:21.547Z,84.17
2022-11-10T16:29:14.469Z,83.94
2022-11-10T16:31:59.458Z,84.06
2022-11-10T16:34:44.647Z,84.69
2022-11-10T16:37:34.040Z,87.38
2022-11-10T16:40:21.458Z,88.02
2022-11-10T16:43:13.717Z,88.04
2022-11-10T16:46:00.327Z,89.46
2022-11-10T16:48:47.055Z,90.94
2022-11-10T16:51:48.254Z,92.17
2022-11-10T16:54:33.732Z,93.16
2022-11-10T16:57:20.604Z,93.01
2022-11-10T17:00:06.246Z,94.35
2022-11-10T17:03:06.265Z,93.54
2022-11-10T17:05:51.296Z,93.15
2022-11-10T17:08:36.246Z,93.50
2022-11-10T17:11:22.118Z,94.61
2022-11-10T17:14:08.475Z,94.74
2022-11-10T17:16:56.765Z,95.51
2022-11-10T17:19:42.981Z,96.53
2022-11-10T17:22:31.756Z,99.17
2022-11-10T17:25:21.527Z,100.00
2022-11-10T17:28:06.487Z,100.00
2022-11-10T17:30:53.068Z,100.00
2022-11-10T17:33:37.940Z,100.00
2022-11-10T17:36:23.623Z,100.00
2022-11-10T17:39:12.201Z,100.00
2022-11-10T17:41:57.125Z,100.00
2022-11-10T17:44:42.026Z,100.00
2022-11-10T17:47:26.897Z,100.00
2022-11-10T17:50:12.202Z,100.00
2022-11-10T17:52:57.286Z,100.00
2022-11-10T17:55:42.529Z,100.00
2022-11-10T17:58:27.641Z,100.00
2022-11-10T18:01:14.179Z,100.00
2022-11-10T18:03:59.765Z,100.00
2022-11-10T18:06:44.931Z,100.00
2022-11-10T18:09:30.177Z,100.00
2022-11-10T18:12:15.603Z,100.00
2022-11-10T18:15:00.800Z,100.00
2022-11-10T18:17:46.107Z,100.00
2022-11-10T18:20:31.047Z,100.00
2022-11-10T18:23:15.980Z,100.00
2022-11-10T18:26:05.821Z,100.00
2022-11-10T18:28:51.110Z,100.00
2022-11-10T18:31:36.081Z,100.00
2022-11-10T18:34:21.505Z,100.00
2022-11-10T18:37:07.261Z,100.00
2022-11-10T18:39:52.455Z,100.00
2022-11-10T18:42:37.486Z,100.00
2022-11-10T18:45:22.661Z,100.00
2022-11-10T18:48:07.690Z,100.00
2022-11-10T18:50:52.920Z,100.00
2022-11-10T18:53:38.792Z,100.00
2022-11-10T18:56:23.729Z,100.00
2022-11-10T18:59:09.017Z,100.00
2022-11-10T19:01:55.418Z,100.00
2022-11-10T19:04:41.211Z,100.00
2022-11-10T19:07:26.543Z,100.00
2022-11-10T19:10:11.474Z,100.00
2022-11-10T19:12:56.931Z,100.00
2022-11-10T19:15:42.160Z,100.00
2022-11-10T19:18:30.224Z,100.00
2022-11-10T19:21:19.606Z,100.00
2022-11-10T19:24:05.546Z,100.00
2022-11-10T19:26:51.387Z,100.00
2022-11-10T19:29:37.234Z,100.00
2022-11-10T19:32:24.799Z,100.00
2022-11-10T19:35:12.339Z,100.00
2022-11-10T19:37:57.669Z,100.00
2022-11-10T19:40:44.637Z,100.00
2022-11-10T19:43:30.187Z,100.00
2022-11-10T19:46:20.089Z,100.00
2022-11-10T19:49:06.323Z,100.00
2022-11-10T19:51:52.003Z,100.00
2022-11-10T19:54:37.183Z,100.00
2022-11-10T19:57:23.217Z,100.00
2022-11-10T20:00:08.634Z,100.00
2022-11-10T20:02:53.747Z,100.00
2022-11-10T20:05:42.041Z,100.00
2022-11-10T20:08:27.536Z,100.00
2022-11-10T20:11:14.137Z,100.00
2022-11-10T20:14:00.656Z,100.00
2022-11-10T20:16:45.889Z,100.00
2022-11-10T20:19:31.072Z,100.00
2022-11-10T20:22:16.297Z,100.00
2022-11-10T20:25:01.422Z,100.00
2022-11-10T20:27:46.766Z,100.00
2022-11-10T20:30:35.862Z,100.00
2022-11-10T20:33:21.395Z,100.00
2022-11-10T20:36:26.853Z,100.00
2022-11-10T20:39:12.334Z,100.00
2022-11-10T20:41:57.706Z,100.00
2022-11-10T20:44:42.978Z,100.00
2022-11-10T20:47:28.485Z,100.00
2022-11-10T20:50:17.215Z,100.00
2022-11-10T20:53:05.850Z,100.00
2022-11-10T20:56:02.114Z,100.00
2022-11-10T20:58:49.019Z,100.00
2022-11-10T21:01:34.741Z,100.00
2022-11-10T21:04:19.935Z,100.00
2022-11-10T21:07:05.058Z,100.00
2022-11-10T21:09:50.443Z,100.00
2022-11-10T21:12:50.703Z,100.00
2022-11-10T21:15:39.714Z,100.00
2022-11-10T21:18:26.540Z,100.00
2022-11-10T21:21:19.964Z,100.00
2022-11-10T21:24:06.024Z,100.00
2022-11-10T21:26:51.500Z,100.00
2022-11-10T21:29:36.861Z,100.00
2022-11-10T21:32:22.169Z,100.00
2022-11-10T21:35:07.454Z,100.00
2022-11-10T21:37:53.886Z,100.00
2022-11-10T21:40:39.491Z,100.00
2022-11-10T21:43:25.261Z,100.00
2022-11-10T21:46:10.343Z,100.00
2022-11-10T21:48:55.534Z,100.00
2022-11-10T21:51:40.406Z,100.00
2022-11-10T21:54:25.444Z,100.00
2022-11-10T21:57:10.572Z,100.00
2022-11-10T21:59:55.535Z,100.00
2022-11-10T22:02:40.514Z,100.00
2022-11-10T22:05:25.592Z,100.00
2022-11-10T22:08:10.956Z,100.00
2022-11-10T22:11:15.185Z,100.00
2022-11-10T22:14:18.920Z,100.00
2022-11-10T22:17:22.626Z,100.00
2022-11-10T22:20:07.945Z,100.00
2022-11-10T22:22:53.059Z,100.00
2022-11-10T22:25:39.210Z,100.00
2022-11-10T22:28:24.725Z,100.00
2022-11-10T22:31:10.449Z,100.00
2022-11-10T22:33:55.657Z,100.00
2022-11-10T22:36:40.659Z,100.00
2022-11-10T22:39:48.907Z,100.00
2022-11-10T22:42:52.957Z,100.00
2022-11-10T22:45:38.026Z,100.00
2022-11-10T22:48:26.300Z,100.00
2022-11-10T22:51:11.461Z,100.00
2022-11-10T22:53:57.096Z,100.00
2022-11-10T22:56:43.515Z,100.00
2022-11-10T22:59:29.139Z,100.00
2022-11-10T23:02:14.009Z,100.00
2022-11-10T23:04:59.463Z,100.00
2022-11-10T23:07:44.912Z,100.00
2022-11-10T23:10:30.200Z,100.00
2022-11-10T23:13:15.750Z,100.00
2022-11-10T23:16:02.561Z,100.00
2022-11-10T23:18:49.739Z,100.00
2022-11-10T23:21:34.817Z,100.00
2022-11-10T23:24:22.991Z,100.00
2022-11-10T23:27:08.384Z,100.00
2022-11-10T23:29:53.358Z,100.00
2022-11-10T23:32:38.619Z,100.00
2022-11-10T23:35:23.865Z,100.00
2022-11-10T23:38:09.034Z,100.00
2022-11-10T23:40:55.163Z,100.00
2022-11-10T23:43:40.365Z,100.00
2022-11-10T23:46:25.796Z,100.00
2022-11-10T23:49:11.293Z,100.00
2022-11-10T23:51:56.771Z,100.00
2022-11-10T23:54:41.790Z,100.00
2022-11-10T23:57:26.996Z,100.00
